createdAt,value
2017-08-18T00:00:38.342Z,1022.15
2017-08-18T00:01:38.980Z,1022.09
2017-08-18T00:02:39.618Z,1022.10
2017-08-18T00:03:40.253Z,1022.14
2017-08-18T00:04:41.095Z,1022.12
2017-08-18T00:05:41.727Z,1022.12
2017-08-18T00:06:42.368Z,1022.14
2017-08-18T00:07:43.003Z,1022.11
2017-08-18T00:08:43.636Z,1022.10
2017-08-18T00:09:44.271Z,1022.13
2017-08-18T00:10:44.909Z,1022.13
2017-08-18T00:11:45.551Z,1022.03
2017-08-18T00:12:46.188Z,1022.06
2017-08-18T00:13:47.070Z,1022.13
2017-08-18T00:14:47.706Z,1022.04
2017-08-18T00:15:48.338Z,1022.13
2017-08-18T00:16:48.975Z,1022.02
2017-08-18T00:17:49.616Z,1022.00
2017-08-18T00:18:50.255Z,1021.98
2017-08-18T00:19:50.893Z,1022.02
2017-08-18T00:20:51.531Z,1022.04
2017-08-18T00:21:52.369Z,1022.07
2017-08-18T00:22:53.006Z,1022.01
2017-08-18T00:23:53.637Z,1022.06
2017-08-18T00:24:54.277Z,1022.09
2017-08-18T00:25:54.909Z,1021.98
2017-08-18T00:26:55.544Z,1022.00
2017-08-18T00:27:56.185Z,1022.06
2017-08-18T00:28:56.829Z,1021.96
2017-08-18T00:29:57.815Z,1022.03
2017-08-18T00:30:58.454Z,1022.08
2017-08-18T00:31:59.088Z,1022.03
2017-08-18T00:32:59.722Z,1021.98
2017-08-18T00:34:00.359Z,1021.96
2017-08-18T00:35:00.994Z,1022.00
2017-08-18T00:36:01.628Z,1022.00
2017-08-18T00:37:02.265Z,1022.02
2017-08-18T00:38:03.050Z,1021.97
2017-08-18T00:39:03.685Z,1021.97
2017-08-18T00:40:04.331Z,1021.97
2017-08-18T00:41:04.967Z,1022.05
2017-08-18T00:42:05.605Z,1022.04
2017-08-18T00:43:06.249Z,1022.03
2017-08-18T00:44:06.877Z,1022.01
2017-08-18T00:45:07.514Z,1021.99
2017-08-18T00:46:08.359Z,1021.99
2017-08-18T00:47:08.992Z,1021.97
2017-08-18T00:48:09.626Z,1022.01
2017-08-18T00:49:10.263Z,1021.93
2017-08-18T00:50:10.949Z,1021.93
2017-08-18T00:51:11.583Z,1021.93
2017-08-18T00:52:12.218Z,1021.97
2017-08-18T00:53:12.854Z,1022.00
2017-08-18T00:54:13.489Z,1021.88
2017-08-18T00:55:14.324Z,1021.95
2017-08-18T00:56:14.959Z,1021.94
2017-08-18T00:57:15.603Z,1021.94
2017-08-18T00:58:16.239Z,1021.93
2017-08-18T00:59:16.872Z,1021.92
2017-08-18T01:00:17.511Z,1021.98
2017-08-18T01:01:18.144Z,1021.97
2017-08-18T01:02:18.780Z,1021.95
2017-08-18T01:03:19.670Z,1021.89
2017-08-18T01:04:20.308Z,1021.84
2017-08-18T01:05:20.945Z,1021.86
2017-08-18T01:06:21.576Z,1021.78
2017-08-18T01:07:22.218Z,1021.91
2017-08-18T01:08:22.853Z,1021.88
2017-08-18T01:09:23.492Z,1021.82
2017-08-18T01:10:24.127Z,1021.83
2017-08-18T01:11:24.960Z,1021.86
2017-08-18T01:12:25.603Z,1021.82
2017-08-18T01:13:26.236Z,1021.74
2017-08-18T01:14:26.873Z,1021.74
2017-08-18T01:15:27.506Z,1021.80
2017-08-18T01:16:28.092Z,1021.79
2017-08-18T01:17:28.726Z,1021.72
2017-08-18T01:18:29.359Z,1021.69
2017-08-18T01:19:30.301Z,1021.70
2017-08-18T01:20:30.928Z,1021.67
2017-08-18T01:21:31.563Z,1021.73
2017-08-18T01:22:32.204Z,1021.67
2017-08-18T01:23:32.837Z,1021.66
2017-08-18T01:24:33.472Z,1021.60
2017-08-18T01:25:34.111Z,1021.55
2017-08-18T01:26:34.749Z,1021.54
2017-08-18T01:27:35.390Z,1021.58
2017-08-18T01:28:36.319Z,1021.60
2017-08-18T01:29:36.966Z,1021.54
2017-08-18T01:30:37.593Z,1021.55
2017-08-18T01:31:38.230Z,1021.59
2017-08-18T01:32:38.868Z,1021.57
2017-08-18T01:33:39.505Z,1021.59
2017-08-18T01:34:40.149Z,1021.57
2017-08-18T01:35:40.779Z,1021.58
2017-08-18T01:36:41.613Z,1021.59
2017-08-18T01:37:42.249Z,1021.61
2017-08-18T01:38:42.890Z,1021.58
2017-08-18T01:39:43.522Z,1021.56
2017-08-18T01:40:44.155Z,1021.52
2017-08-18T01:41:44.793Z,1021.49
2017-08-18T01:42:45.433Z,1021.60
2017-08-18T01:43:46.066Z,1021.54
2017-08-18T01:44:46.904Z,1021.47
2017-08-18T01:45:47.541Z,1021.59
2017-08-18T01:46:48.178Z,1021.59
2017-08-18T01:47:48.815Z,1021.55
2017-08-18T01:48:49.447Z,1021.56
2017-08-18T01:49:50.082Z,1021.62
2017-08-18T01:50:50.721Z,1021.63
2017-08-18T01:51:51.360Z,1021.66
2017-08-18T01:52:52.194Z,1021.65
2017-08-18T01:53:52.835Z,1021.75
2017-08-18T01:54:53.474Z,1021.76
2017-08-18T01:55:54.112Z,1021.63
2017-08-18T01:56:54.750Z,1021.66
2017-08-18T01:57:55.383Z,1021.68
2017-08-18T01:58:56.024Z,1021.72
2017-08-18T01:59:56.659Z,1021.67
2017-08-18T02:00:57.594Z,1021.57
2017-08-18T02:01:58.229Z,1021.57
2017-08-18T02:02:58.866Z,1021.58
2017-08-18T02:03:59.558Z,1021.53
2017-08-18T02:05:00.190Z,1021.45
2017-08-18T02:06:00.831Z,1021.45
2017-08-18T02:07:01.464Z,1021.43
2017-08-18T02:08:02.099Z,1021.47
2017-08-18T02:09:02.738Z,1021.38
2017-08-18T02:10:03.574Z,1021.50
2017-08-18T02:11:04.215Z,1021.40
2017-08-18T02:12:04.854Z,1021.44
2017-08-18T02:13:05.486Z,1021.37
2017-08-18T02:14:06.123Z,1021.31
2017-08-18T02:15:06.762Z,1021.30
2017-08-18T02:16:07.395Z,1021.32
2017-08-18T02:17:08.029Z,1021.34
2017-08-18T02:18:08.963Z,1021.34
2017-08-18T02:19:09.599Z,1021.40
2017-08-18T02:20:10.234Z,1021.30
2017-08-18T02:21:10.868Z,1021.48
2017-08-18T02:22:11.502Z,1021.35
2017-08-18T02:23:12.138Z,1021.41
2017-08-18T02:24:12.776Z,1021.35
2017-08-18T02:25:13.422Z,1021.38
2017-08-18T02:26:14.242Z,1021.45
2017-08-18T02:27:14.883Z,1021.38
2017-08-18T02:28:15.519Z,1021.43
2017-08-18T02:29:16.164Z,1021.35
2017-08-18T02:30:16.794Z,1021.32
2017-08-18T02:31:17.434Z,1021.29
2017-08-18T02:32:18.086Z,1021.30
2017-08-18T02:33:18.774Z,1021.28
2017-08-18T02:34:19.610Z,1021.23
2017-08-18T02:35:20.242Z,1021.27
2017-08-18T02:36:20.882Z,1021.23
2017-08-18T02:37:21.517Z,1021.25
2017-08-18T02:38:22.155Z,1021.17
2017-08-18T02:39:22.787Z,1021.18
2017-08-18T02:40:23.425Z,1021.25
2017-08-18T02:41:24.059Z,1021.22
2017-08-18T02:42:24.695Z,1021.22
2017-08-18T02:43:25.479Z,1021.17
2017-08-18T02:44:26.115Z,1021.26
2017-08-18T02:45:26.749Z,1021.17
2017-08-18T02:46:27.383Z,1021.22
2017-08-18T02:47:28.019Z,1021.19
2017-08-18T02:48:28.654Z,1021.18
2017-08-18T02:49:29.288Z,1021.17
2017-08-18T02:50:29.930Z,1021.18
2017-08-18T02:51:30.767Z,1021.12
2017-08-18T02:52:31.403Z,1021.16
2017-08-18T02:53:32.040Z,1021.06
2017-08-18T02:54:32.671Z,1021.02
2017-08-18T02:55:33.312Z,1020.94
2017-08-18T02:56:33.944Z,1020.84
2017-08-18T02:57:34.578Z,1020.88
2017-08-18T02:58:35.216Z,1020.77
2017-08-18T02:59:36.049Z,1020.69
2017-08-18T03:00:36.685Z,1020.67
2017-08-18T03:01:37.319Z,1020.71
2017-08-18T03:02:37.954Z,1020.72
2017-08-18T03:03:38.589Z,1020.68
2017-08-18T03:04:39.231Z,1020.72
2017-08-18T03:05:39.864Z,1020.79
2017-08-18T03:06:40.498Z,1020.83
2017-08-18T03:07:41.333Z,1020.88
2017-08-18T03:08:41.973Z,1020.93
2017-08-18T03:09:42.609Z,1020.77
2017-08-18T03:10:43.247Z,1020.85
2017-08-18T03:11:43.882Z,1020.93
2017-08-18T03:12:44.518Z,1020.81
2017-08-18T03:13:45.155Z,1020.86
2017-08-18T03:14:45.798Z,1020.88
2017-08-18T03:15:46.540Z,1020.95
2017-08-18T03:16:47.168Z,1020.99
2017-08-18T03:17:47.808Z,1020.97
2017-08-18T03:18:48.443Z,1020.97
2017-08-18T03:19:49.073Z,1021.03
2017-08-18T03:20:49.710Z,1021.07
2017-08-18T03:21:50.344Z,1021.02
2017-08-18T03:22:50.981Z,1021.10
2017-08-18T03:23:51.623Z,1021.17
2017-08-18T03:24:52.503Z,1021.13
2017-08-18T03:25:53.138Z,1021.07
2017-08-18T03:26:53.771Z,1021.10
2017-08-18T03:27:54.407Z,1021.24
2017-08-18T03:28:55.043Z,1021.16
2017-08-18T03:29:55.681Z,1021.17
2017-08-18T03:30:56.321Z,1021.21
2017-08-18T03:31:56.954Z,1021.18
2017-08-18T03:32:57.789Z,1021.12
2017-08-18T03:33:58.428Z,1021.12
2017-08-18T03:34:59.060Z,1021.12
2017-08-18T03:35:59.700Z,1021.02
2017-08-18T03:37:00.337Z,1021.03
2017-08-18T03:38:00.976Z,1021.03
2017-08-18T03:39:01.606Z,1021.03
2017-08-18T03:40:02.246Z,1020.92
2017-08-18T03:41:03.075Z,1020.91
2017-08-18T03:42:03.715Z,1020.81
2017-08-18T03:43:04.352Z,1020.87
2017-08-18T03:44:04.991Z,1020.89
2017-08-18T03:45:05.629Z,1020.96
2017-08-18T03:46:06.260Z,1020.90
2017-08-18T03:47:06.895Z,1020.94
2017-08-18T03:48:07.531Z,1020.97
2017-08-18T03:49:08.372Z,1020.89
2017-08-18T03:50:09.010Z,1020.93
2017-08-18T03:51:09.649Z,1020.92
2017-08-18T03:52:10.283Z,1020.97
2017-08-18T03:53:10.917Z,1021.03
2017-08-18T03:54:11.553Z,1020.97
2017-08-18T03:55:12.188Z,1020.93
2017-08-18T03:56:12.823Z,1020.96
2017-08-18T03:57:13.464Z,1021.01
2017-08-18T03:58:14.295Z,1021.15
2017-08-18T03:59:14.930Z,1021.14
2017-08-18T04:00:15.564Z,1021.04
2017-08-18T04:01:16.199Z,1020.94
2017-08-18T04:02:16.841Z,1020.87
2017-08-18T04:03:17.471Z,1020.90
2017-08-18T04:04:18.112Z,1020.87
2017-08-18T04:05:18.749Z,1020.72
2017-08-18T04:06:19.532Z,1020.74
2017-08-18T04:07:20.175Z,1020.66
2017-08-18T04:08:20.809Z,1020.59
2017-08-18T04:09:21.445Z,1020.61
2017-08-18T04:10:22.083Z,1020.58
2017-08-18T04:11:22.720Z,1020.58
2017-08-18T04:12:23.354Z,1020.44
2017-08-18T04:13:23.993Z,1020.55
2017-08-18T04:14:24.831Z,1020.66
2017-08-18T04:15:25.471Z,1020.54
2017-08-18T04:16:26.112Z,1020.61
2017-08-18T04:17:26.746Z,1020.70
2017-08-18T04:18:27.378Z,1020.70
2017-08-18T04:19:28.020Z,1020.65
2017-08-18T04:20:28.655Z,1020.63
2017-08-18T04:21:29.304Z,1020.68
2017-08-18T04:22:30.082Z,1020.58
2017-08-18T04:23:30.719Z,1020.59
2017-08-18T04:24:31.358Z,1020.55
2017-08-18T04:25:31.988Z,1020.49
2017-08-18T04:26:32.628Z,1020.42
2017-08-18T04:27:33.269Z,1020.36
2017-08-18T04:28:33.898Z,1020.34
2017-08-18T04:29:34.543Z,1020.34
2017-08-18T04:30:35.629Z,1020.34
2017-08-18T04:31:36.260Z,1020.34
2017-08-18T04:32:36.896Z,1020.48
2017-08-18T04:33:37.544Z,1020.47
2017-08-18T04:34:38.175Z,1020.50
2017-08-18T04:35:38.817Z,1020.50
2017-08-18T04:36:39.451Z,1020.44
2017-08-18T04:37:40.084Z,1020.56
2017-08-18T04:38:40.724Z,1020.44
2017-08-18T04:39:41.555Z,1020.42
2017-08-18T04:40:42.193Z,1020.46
2017-08-18T04:41:42.883Z,1020.41
2017-08-18T04:42:43.514Z,1020.41
2017-08-18T04:43:44.148Z,1020.40
2017-08-18T04:44:44.784Z,1020.44
2017-08-18T04:45:45.424Z,1020.53
2017-08-18T04:46:46.058Z,1020.58
2017-08-18T04:47:46.893Z,1020.58
2017-08-18T04:48:47.531Z,1020.59
2017-08-18T04:49:48.168Z,1020.68
2017-08-18T04:50:48.812Z,1020.61
2017-08-18T04:51:49.449Z,1020.61
2017-08-18T04:52:50.078Z,1020.61
2017-08-18T04:53:50.722Z,1020.64
2017-08-18T04:54:51.412Z,1020.73
2017-08-18T04:55:52.240Z,1020.81
2017-08-18T04:56:52.874Z,1020.78
2017-08-18T04:57:53.509Z,1020.81
2017-08-18T04:58:54.146Z,1020.78
2017-08-18T04:59:54.779Z,1020.80
2017-08-18T05:00:55.416Z,1020.78
2017-08-18T05:01:56.056Z,1020.79
2017-08-18T05:02:56.691Z,1020.84
2017-08-18T05:03:57.630Z,1020.80
2017-08-18T05:04:58.260Z,1020.79
2017-08-18T05:05:58.901Z,1020.84
2017-08-18T05:06:59.539Z,1020.86
2017-08-18T05:08:00.168Z,1020.86
2017-08-18T05:09:00.815Z,1021.01
2017-08-18T05:10:01.448Z,1020.95
2017-08-18T05:11:02.088Z,1020.96
2017-08-18T05:12:02.725Z,1020.95
2017-08-18T05:13:03.563Z,1020.99
2017-08-18T05:14:04.207Z,1020.96
2017-08-18T05:15:04.837Z,1021.06
2017-08-18T05:16:05.480Z,1020.96
2017-08-18T05:17:06.110Z,1020.96
2017-08-18T05:18:06.746Z,1020.98
2017-08-18T05:19:07.386Z,1021.00
2017-08-18T05:20:08.023Z,1020.95
2017-08-18T05:21:08.861Z,1021.01
2017-08-18T05:22:09.493Z,1020.95
2017-08-18T05:23:10.129Z,1020.94
2017-08-18T05:24:10.765Z,1020.87
2017-08-18T05:25:11.402Z,1020.96
2017-08-18T05:26:12.044Z,1021.06
2017-08-18T05:27:12.675Z,1021.05
2017-08-18T05:28:13.309Z,1020.94
2017-08-18T05:29:14.095Z,1020.93
2017-08-18T05:30:14.739Z,1020.95
2017-08-18T05:31:15.424Z,1020.96
2017-08-18T05:32:16.062Z,1020.95
2017-08-18T05:33:16.706Z,1020.88
2017-08-18T05:34:17.341Z,1020.86
2017-08-18T05:35:17.971Z,1020.82
2017-08-18T05:36:18.604Z,1020.92
2017-08-18T05:37:19.591Z,1020.86
2017-08-18T05:38:20.241Z,1020.88
2017-08-18T05:39:20.877Z,1020.92
2017-08-18T05:40:21.509Z,1020.95
2017-08-18T05:41:22.143Z,1020.97
2017-08-18T05:42:22.785Z,1020.97
2017-08-18T05:43:23.421Z,1020.96
2017-08-18T05:44:24.056Z,1021.05
2017-08-18T05:45:24.943Z,1021.02
2017-08-18T05:46:25.583Z,1021.07
2017-08-18T05:47:26.215Z,1021.06
2017-08-18T05:48:26.855Z,1021.04
2017-08-18T05:49:27.488Z,1021.11
2017-08-18T05:50:28.122Z,1021.09
2017-08-18T05:51:28.762Z,1021.04
2017-08-18T05:52:29.398Z,1021.03
2017-08-18T05:53:30.035Z,1021.04
2017-08-18T05:54:30.819Z,1021.04
2017-08-18T05:55:31.458Z,1021.01
2017-08-18T05:56:32.096Z,1020.98
2017-08-18T05:57:32.725Z,1020.95
2017-08-18T05:58:33.366Z,1021.06
2017-08-18T05:59:34.001Z,1020.98
2017-08-18T06:00:34.635Z,1021.04
2017-08-18T06:01:35.268Z,1021.00
2017-08-18T06:02:36.101Z,1020.91
2017-08-18T06:03:36.737Z,1021.03
2017-08-18T06:04:37.372Z,1021.07
2017-08-18T06:05:38.012Z,1021.09
2017-08-18T06:06:38.651Z,1021.04
2017-08-18T06:07:39.280Z,1021.14
2017-08-18T06:08:39.918Z,1021.02
2017-08-18T06:09:40.553Z,1020.93
2017-08-18T06:10:41.338Z,1020.92
2017-08-18T06:11:41.979Z,1020.99
2017-08-18T06:12:42.617Z,1021.16
2017-08-18T06:13:43.246Z,1021.17
2017-08-18T06:14:43.887Z,1021.08
2017-08-18T06:15:44.528Z,1021.11
2017-08-18T06:16:45.164Z,1021.15
2017-08-18T06:17:45.798Z,1021.06
2017-08-18T06:18:46.684Z,1021.06
2017-08-18T06:19:47.322Z,1021.15
2017-08-18T06:20:47.955Z,1021.17
2017-08-18T06:21:48.588Z,1021.06
2017-08-18T06:22:49.230Z,1021.07
2017-08-18T06:23:49.866Z,1021.06
2017-08-18T06:24:50.555Z,1021.12
2017-08-18T06:25:51.195Z,1021.03
2017-08-18T06:26:51.832Z,1021.07
2017-08-18T06:27:52.615Z,1021.06
2017-08-18T06:28:53.249Z,1021.09
2017-08-18T06:29:53.885Z,1021.02
2017-08-18T06:30:54.526Z,1021.09
2017-08-18T06:31:55.156Z,1021.07
2017-08-18T06:32:55.790Z,1021.28
2017-08-18T06:33:56.422Z,1021.17
2017-08-18T06:34:57.065Z,1021.16
2017-08-18T06:35:57.945Z,1021.16
2017-08-18T06:36:58.583Z,1021.08
2017-08-18T06:37:59.221Z,1021.05
2017-08-18T06:38:59.865Z,1021.04
2017-08-18T06:40:00.491Z,1021.03
2017-08-18T06:41:01.126Z,1021.05
2017-08-18T06:42:01.768Z,1021.07
2017-08-18T06:43:02.417Z,1021.06
2017-08-18T06:44:03.234Z,1021.04
2017-08-18T06:45:03.870Z,1021.02
2017-08-18T06:46:04.504Z,1021.10
2017-08-18T06:47:05.144Z,1021.17
2017-08-18T06:48:05.775Z,1021.07
2017-08-18T06:49:06.417Z,1021.13
2017-08-18T06:50:07.049Z,1021.07
2017-08-18T06:51:07.682Z,1021.16
2017-08-18T06:52:08.518Z,1021.11
2017-08-18T06:53:09.152Z,1021.19
2017-08-18T06:54:09.785Z,1021.07
2017-08-18T06:55:10.423Z,1021.14
2017-08-18T06:56:11.109Z,1021.26
2017-08-18T06:57:11.748Z,1021.24
2017-08-18T06:58:12.381Z,1021.28
2017-08-18T06:59:13.021Z,1021.24
2017-08-18T07:00:14.059Z,1021.19
2017-08-18T07:01:14.697Z,1021.17
2017-08-18T07:02:15.336Z,1021.22
2017-08-18T07:03:15.971Z,1021.26
2017-08-18T07:04:16.608Z,1021.20
2017-08-18T07:05:17.250Z,1021.21
2017-08-18T07:06:17.886Z,1021.22
2017-08-18T07:07:18.519Z,1021.27
2017-08-18T07:08:19.155Z,1021.31
2017-08-18T07:09:20.039Z,1021.29
2017-08-18T07:10:20.676Z,1021.32
2017-08-18T07:11:21.311Z,1021.29
2017-08-18T07:12:21.945Z,1021.35
2017-08-18T07:13:22.581Z,1021.40
2017-08-18T07:14:23.215Z,1021.41
2017-08-18T07:15:23.848Z,1021.41
2017-08-18T07:16:24.487Z,1021.39
2017-08-18T07:17:25.320Z,1021.46
2017-08-18T07:18:25.953Z,1021.41
2017-08-18T07:19:26.594Z,1021.39
2017-08-18T07:20:27.231Z,1021.50
2017-08-18T07:21:27.861Z,1021.52
2017-08-18T07:22:28.506Z,1021.58
2017-08-18T07:23:29.147Z,1021.52
2017-08-18T07:24:29.783Z,1021.60
2017-08-18T07:25:30.616Z,1021.64
2017-08-18T07:26:31.248Z,1021.49
2017-08-18T07:27:31.884Z,1021.55
2017-08-18T07:28:32.527Z,1021.51
2017-08-18T07:29:33.168Z,1021.51
2017-08-18T07:30:33.794Z,1021.60
2017-08-18T07:31:34.434Z,1021.52
2017-08-18T07:32:35.070Z,1021.58
2017-08-18T07:33:35.902Z,1021.58
2017-08-18T07:34:36.536Z,1021.71
2017-08-18T07:35:37.171Z,1021.62
2017-08-18T07:36:37.804Z,1021.66
2017-08-18T07:37:38.446Z,1021.62
2017-08-18T07:38:39.079Z,1021.61
2017-08-18T07:39:39.714Z,1021.63
2017-08-18T07:40:40.352Z,1021.55
2017-08-18T07:41:40.997Z,1021.67
2017-08-18T07:42:41.930Z,1021.62
2017-08-18T07:43:42.568Z,1021.60
2017-08-18T07:44:43.198Z,1021.65
2017-08-18T07:45:43.840Z,1021.60
2017-08-18T07:46:44.476Z,1021.68
2017-08-18T07:47:45.107Z,1021.68
2017-08-18T07:48:45.744Z,1021.70
2017-08-18T07:49:46.378Z,1021.72
2017-08-18T07:50:47.213Z,1021.74
2017-08-18T07:51:47.853Z,1021.77
2017-08-18T07:52:48.493Z,1021.79
2017-08-18T07:53:49.121Z,1021.75
2017-08-18T07:54:49.756Z,1021.81
2017-08-18T07:55:50.392Z,1021.81
2017-08-18T07:56:51.029Z,1021.78
2017-08-18T07:57:51.665Z,1021.82
2017-08-18T07:58:52.551Z,1021.87
2017-08-18T07:59:53.187Z,1021.85
2017-08-18T08:00:53.821Z,1021.97
2017-08-18T08:01:54.454Z,1021.92
2017-08-18T08:02:55.092Z,1021.96
2017-08-18T08:03:55.732Z,1021.95
2017-08-18T08:04:56.370Z,1021.95
2017-08-18T08:05:57.006Z,1021.94
2017-08-18T08:06:57.792Z,1021.95
2017-08-18T08:07:58.424Z,1022.03
2017-08-18T08:08:59.059Z,1022.07
2017-08-18T08:09:59.700Z,1022.15
2017-08-18T08:11:00.329Z,1022.16
2017-08-18T08:12:00.965Z,1022.11
2017-08-18T08:13:01.654Z,1022.06
2017-08-18T08:14:02.287Z,1022.05
2017-08-18T08:15:03.126Z,1022.11
2017-08-18T08:16:03.762Z,1022.11
2017-08-18T08:17:04.402Z,1021.99
2017-08-18T08:18:05.038Z,1022.04
2017-08-18T08:19:05.672Z,1022.01
2017-08-18T08:20:06.314Z,1022.01
2017-08-18T08:21:06.946Z,1021.99
2017-08-18T08:22:07.585Z,1022.06
2017-08-18T08:23:08.215Z,1022.08
2017-08-18T08:24:09.056Z,1022.09
2017-08-18T08:25:09.686Z,1022.11
2017-08-18T08:26:10.327Z,1022.09
2017-08-18T08:27:10.960Z,1022.09
2017-08-18T08:28:11.597Z,1022.10
2017-08-18T08:29:12.237Z,1022.04
2017-08-18T08:30:12.868Z,1022.10
2017-08-18T08:31:13.509Z,1022.12
2017-08-18T08:32:14.293Z,1022.13
2017-08-18T08:33:14.927Z,1022.15
2017-08-18T08:34:15.569Z,1022.05
2017-08-18T08:35:16.200Z,1022.23
2017-08-18T08:36:16.837Z,1022.29
2017-08-18T08:37:17.480Z,1022.18
2017-08-18T08:38:18.114Z,1022.29
2017-08-18T08:39:18.752Z,1022.28
2017-08-18T08:40:19.642Z,1022.24
2017-08-18T08:41:20.283Z,1022.29
2017-08-18T08:42:20.913Z,1022.29
2017-08-18T08:43:21.547Z,1022.17
2017-08-18T08:44:22.180Z,1022.27
2017-08-18T08:45:22.822Z,1022.27
2017-08-18T08:46:23.456Z,1022.27
2017-08-18T08:47:24.089Z,1022.28
2017-08-18T08:48:24.922Z,1022.21
2017-08-18T08:49:25.557Z,1022.27
2017-08-18T08:50:26.191Z,1022.23
2017-08-18T08:51:26.828Z,1022.22
2017-08-18T08:52:27.463Z,1022.28
2017-08-18T08:53:28.046Z,1022.35
2017-08-18T08:54:28.681Z,1022.32
2017-08-18T08:55:29.320Z,1022.37
2017-08-18T08:56:29.950Z,1022.30
2017-08-18T08:57:30.985Z,1022.35
2017-08-18T08:58:31.622Z,1022.37
2017-08-18T08:59:32.261Z,1022.34
2017-08-18T09:00:32.899Z,1022.41
2017-08-18T09:01:33.527Z,1022.37
2017-08-18T09:02:34.182Z,1022.41
2017-08-18T09:03:34.803Z,1022.39
2017-08-18T09:04:35.439Z,1022.49
2017-08-18T09:05:36.334Z,1022.44
2017-08-18T09:06:36.968Z,1022.50
2017-08-18T09:07:37.614Z,1022.48
2017-08-18T09:08:38.298Z,1022.45
2017-08-18T09:09:38.936Z,1022.46
2017-08-18T09:10:39.575Z,1022.47
2017-08-18T09:11:40.209Z,1022.53
2017-08-18T09:12:40.847Z,1022.45
2017-08-18T09:13:41.635Z,1022.59
2017-08-18T09:14:42.273Z,1022.47
2017-08-18T09:15:42.907Z,1022.43
2017-08-18T09:16:43.540Z,1022.44
2017-08-18T09:17:44.185Z,1022.41
2017-08-18T09:18:44.814Z,1022.47
2017-08-18T09:19:45.453Z,1022.46
2017-08-18T09:20:46.096Z,1022.53
2017-08-18T09:21:46.924Z,1022.44
2017-08-18T09:22:47.560Z,1022.49
2017-08-18T09:23:48.191Z,1022.54
2017-08-18T09:24:48.831Z,1022.51
2017-08-18T09:25:49.466Z,1022.49
2017-08-18T09:26:50.103Z,1022.47
2017-08-18T09:27:50.737Z,1022.50
2017-08-18T09:28:51.370Z,1022.53
2017-08-18T09:29:52.157Z,1022.51
2017-08-18T09:30:52.790Z,1022.39
2017-08-18T09:31:53.432Z,1022.52
2017-08-18T09:32:54.063Z,1022.47
2017-08-18T09:33:54.698Z,1022.53
2017-08-18T09:34:55.338Z,1022.57
2017-08-18T09:35:55.969Z,1022.57
2017-08-18T09:36:56.610Z,1022.54
2017-08-18T09:37:57.247Z,1022.41
2017-08-18T09:38:58.079Z,1022.48
2017-08-18T09:39:58.713Z,1022.41
2017-08-18T09:40:59.353Z,1022.45
2017-08-18T09:41:59.992Z,1022.50
2017-08-18T09:43:00.631Z,1022.51
2017-08-18T09:44:01.263Z,1022.48
2017-08-18T09:45:01.908Z,1022.40
2017-08-18T09:46:02.547Z,1022.53
2017-08-18T09:47:03.328Z,1022.42
2017-08-18T09:48:03.962Z,1022.47
2017-08-18T09:49:04.598Z,1022.45
2017-08-18T09:50:05.232Z,1022.35
2017-08-18T09:51:05.873Z,1022.36
2017-08-18T09:52:06.505Z,1022.43
2017-08-18T09:53:07.141Z,1022.35
2017-08-18T09:54:07.786Z,1022.35
2017-08-18T09:55:08.612Z,1022.29
2017-08-18T09:56:09.254Z,1022.29
2017-08-18T09:57:09.884Z,1022.31
2017-08-18T09:58:10.516Z,1022.36
2017-08-18T09:59:11.152Z,1022.34
2017-08-18T10:00:11.791Z,1022.40
2017-08-18T10:01:12.429Z,1022.37
2017-08-18T10:02:13.064Z,1022.36
2017-08-18T10:03:13.908Z,1022.43
2017-08-18T10:04:14.548Z,1022.35
2017-08-18T10:05:15.187Z,1022.41
2017-08-18T10:06:15.822Z,1022.44
2017-08-18T10:07:16.453Z,1022.37
2017-08-18T10:08:17.086Z,1022.41
2017-08-18T10:09:17.722Z,1022.52
2017-08-18T10:10:18.363Z,1022.48
2017-08-18T10:11:18.999Z,1022.53
2017-08-18T10:12:19.842Z,1022.51
2017-08-18T10:13:20.472Z,1022.49
2017-08-18T10:14:21.107Z,1022.53
2017-08-18T10:15:21.747Z,1022.45
2017-08-18T10:16:22.379Z,1022.54
2017-08-18T10:17:23.014Z,1022.43
2017-08-18T10:18:23.648Z,1022.52
2017-08-18T10:19:24.343Z,1022.46
2017-08-18T10:20:25.177Z,1022.48
2017-08-18T10:21:25.812Z,1022.52
2017-08-18T10:22:26.447Z,1022.52
2017-08-18T10:23:27.088Z,1022.48
2017-08-18T10:24:27.726Z,1022.51
2017-08-18T10:25:28.367Z,1022.40
2017-08-18T10:26:28.994Z,1022.56
2017-08-18T10:27:29.628Z,1022.59
2017-08-18T10:28:30.476Z,1022.57
2017-08-18T10:29:31.105Z,1022.60
2017-08-18T10:30:31.748Z,1022.52
2017-08-18T10:31:32.386Z,1022.50
2017-08-18T10:32:33.018Z,1022.57
2017-08-18T10:33:33.656Z,1022.55
2017-08-18T10:34:34.291Z,1022.53
2017-08-18T10:35:34.932Z,1022.54
2017-08-18T10:36:35.766Z,1022.57
2017-08-18T10:37:36.409Z,1022.53
2017-08-18T10:38:37.047Z,1022.59
2017-08-18T10:39:37.681Z,1022.51
2017-08-18T10:40:38.316Z,1022.41
2017-08-18T10:41:38.953Z,1022.56
2017-08-18T10:42:39.591Z,1022.63
2017-08-18T10:43:40.230Z,1022.61
2017-08-18T10:44:41.019Z,1022.62
2017-08-18T10:45:41.660Z,1022.60
2017-08-18T10:46:42.295Z,1022.70
2017-08-18T10:47:42.933Z,1022.56
2017-08-18T10:48:43.573Z,1022.59
2017-08-18T10:49:44.265Z,1022.56
2017-08-18T10:50:44.950Z,1022.59
2017-08-18T10:51:45.594Z,1022.55
2017-08-18T10:52:46.226Z,1022.62
2017-08-18T10:53:47.063Z,1022.54
2017-08-18T10:54:47.700Z,1022.52
2017-08-18T10:55:48.335Z,1022.61
2017-08-18T10:56:48.971Z,1022.62
2017-08-18T10:57:49.608Z,1022.56
2017-08-18T10:58:50.252Z,1022.62
2017-08-18T10:59:50.884Z,1022.55
2017-08-18T11:00:51.519Z,1022.65
2017-08-18T11:01:52.356Z,1022.68
2017-08-18T11:02:52.989Z,1022.61
2017-08-18T11:03:53.622Z,1022.63
2017-08-18T11:04:54.265Z,1022.68
2017-08-18T11:05:54.902Z,1022.63
2017-08-18T11:06:55.545Z,1022.63
2017-08-18T11:07:56.173Z,1022.59
2017-08-18T11:08:56.815Z,1022.72
2017-08-18T11:09:57.604Z,1022.65
2017-08-18T11:10:58.242Z,1022.69
2017-08-18T11:11:58.874Z,1022.70
2017-08-18T11:12:59.507Z,1022.63
2017-08-18T11:14:00.142Z,1022.72
2017-08-18T11:15:00.785Z,1022.67
2017-08-18T11:16:01.428Z,1022.66
2017-08-18T11:17:02.062Z,1022.74
2017-08-18T11:18:02.999Z,1022.78
2017-08-18T11:19:03.633Z,1022.63
2017-08-18T11:20:04.270Z,1022.65
2017-08-18T11:21:04.906Z,1022.68
2017-08-18T11:22:05.599Z,1022.76
2017-08-18T11:23:06.231Z,1022.66
2017-08-18T11:24:06.873Z,1022.80
2017-08-18T11:25:07.506Z,1022.72
2017-08-18T11:26:08.142Z,1022.78
2017-08-18T11:27:09.125Z,1022.75
2017-08-18T11:28:09.768Z,1022.78
2017-08-18T11:29:10.406Z,1022.62
2017-08-18T11:30:11.048Z,1022.69
2017-08-18T11:31:11.684Z,1022.78
2017-08-18T11:32:12.316Z,1022.68
2017-08-18T11:33:12.956Z,1022.76
2017-08-18T11:34:13.597Z,1022.75
2017-08-18T11:35:14.532Z,1022.78
2017-08-18T11:36:15.170Z,1022.75
2017-08-18T11:37:15.853Z,1022.69
2017-08-18T11:38:16.495Z,1022.76
2017-08-18T11:39:17.127Z,1022.68
2017-08-18T11:40:17.763Z,1022.85
2017-08-18T11:41:18.450Z,1022.68
2017-08-18T11:42:19.087Z,1022.74
2017-08-18T11:43:19.875Z,1022.76
2017-08-18T11:44:20.508Z,1022.65
2017-08-18T11:45:21.142Z,1022.64
2017-08-18T11:46:21.777Z,1022.61
2017-08-18T11:47:22.417Z,1022.64
2017-08-18T11:48:23.060Z,1022.72
2017-08-18T11:49:23.694Z,1022.69
2017-08-18T11:50:24.327Z,1022.73
2017-08-18T11:51:25.217Z,1022.77
2017-08-18T11:52:25.906Z,1022.70
2017-08-18T11:53:26.542Z,1022.72
2017-08-18T11:54:27.183Z,1022.65
2017-08-18T11:55:27.815Z,1022.55
2017-08-18T11:56:28.452Z,1022.56
2017-08-18T11:57:29.084Z,1022.56
2017-08-18T11:58:29.719Z,1022.50
2017-08-18T11:59:30.504Z,1022.64
2017-08-18T12:00:31.142Z,1022.56
2017-08-18T12:01:31.786Z,1022.56
2017-08-18T12:02:32.416Z,1022.57
2017-08-18T12:03:33.050Z,1022.51
2017-08-18T12:04:33.688Z,1022.51
2017-08-18T12:05:34.323Z,1022.52
2017-08-18T12:06:34.965Z,1022.55
2017-08-18T12:07:35.596Z,1022.56
2017-08-18T12:08:36.479Z,1022.60
2017-08-18T12:09:37.128Z,1022.53
2017-08-18T12:10:37.764Z,1022.60
2017-08-18T12:11:38.406Z,1022.57
2017-08-18T12:12:39.034Z,1022.53
2017-08-18T12:13:39.674Z,1022.56